createdAt,value
2022-08-29T00:01:55.168Z,0.20
2022-08-29T00:04:26.708Z,0.20
2022-08-29T00:06:55.353Z,0.20
2022-08-29T00:09:23.139Z,0.20
2022-08-29T00:11:52.515Z,0.10
2022-08-29T00:14:23.334Z,0.20
2022-08-29T00:16:52.063Z,0.20
2022-08-29T00:19:20.355Z,0.20
2022-08-29T00:21:48.283Z,0.20
2022-08-29T00:24:17.063Z,0.20
2022-08-29T00:26:44.880Z,0.20
2022-08-29T00:29:15.097Z,0.20
2022-08-29T00:31:43.126Z,0.20
2022-08-29T00:34:11.145Z,0.20
2022-08-29T00:36:38.983Z,0.20
2022-08-29T00:39:09.170Z,0.20
2022-08-29T00:41:37.388Z,0.20
2022-08-29T00:44:06.265Z,0.20
2022-08-29T00:46:52.080Z,0.20
2022-08-29T00:49:31.700Z,0.20
2022-08-29T00:52:04.561Z,0.20
2022-08-29T00:54:33.576Z,0.20
2022-08-29T00:57:01.762Z,0.20
2022-08-29T00:59:34.324Z,0.20
2022-08-29T01:02:04.958Z,0.20
2022-08-29T01:04:33.983Z,0.20
2022-08-29T01:07:02.179Z,0.20
2022-08-29T01:09:30.858Z,0.20
2022-08-29T01:12:16.617Z,0.20
2022-08-29T01:14:48.053Z,0.20
2022-08-29T01:17:21.669Z,0.20
2022-08-29T01:19:55.840Z,0.20
2022-08-29T01:22:40.426Z,0.20
2022-08-29T01:25:12.856Z,0.20
2022-08-29T01:27:45.152Z,0.30
2022-08-29T01:30:15.210Z,0.30
2022-08-29T01:32:43.623Z,0.20
2022-08-29T01:35:11.678Z,0.20
2022-08-29T01:37:42.232Z,0.20
2022-08-29T01:40:12.990Z,0.30
2022-08-29T01:42:41.108Z,0.20
2022-08-29T01:45:10.290Z,0.20
2022-08-29T01:47:39.298Z,0.20
2022-08-29T01:50:10.679Z,0.20
2022-08-29T01:52:38.926Z,0.20
2022-08-29T01:55:07.649Z,0.20
2022-08-29T01:57:39.510Z,0.20
2022-08-29T02:00:10.564Z,0.20
2022-08-29T02:02:40.314Z,0.20
2022-08-29T02:05:09.735Z,0.20
2022-08-29T02:07:37.697Z,0.20
2022-08-29T02:10:08.122Z,0.20
2022-08-29T02:12:36.661Z,0.20
2022-08-29T02:15:07.602Z,0.20
2022-08-29T02:17:35.620Z,0.20
2022-08-29T02:20:06.651Z,0.20
2022-08-29T02:22:35.912Z,0.20
2022-08-29T02:25:25.316Z,0.20
2022-08-29T02:27:53.335Z,0.20
2022-08-29T02:30:22.844Z,0.20
2022-08-29T02:32:51.005Z,0.20
2022-08-29T02:35:19.547Z,0.20
2022-08-29T02:37:47.336Z,0.20
2022-08-29T02:40:15.503Z,0.20
2022-08-29T02:42:43.473Z,0.20
2022-08-29T02:45:12.136Z,0.20
2022-08-29T02:47:43.044Z,0.20
2022-08-29T02:50:11.908Z,0.20
2022-08-29T02:52:42.449Z,0.20
2022-08-29T02:55:15.263Z,0.20
2022-08-29T02:57:48.927Z,0.20
2022-08-29T03:00:23.194Z,0.20
2022-08-29T03:02:53.255Z,0.20
2022-08-29T03:05:23.927Z,0.20
2022-08-29T03:07:52.556Z,0.20
2022-08-29T03:10:20.715Z,0.20
2022-08-29T03:12:49.264Z,0.20
2022-08-29T03:15:17.989Z,0.20
2022-08-29T03:17:46.107Z,0.20
2022-08-29T03:20:18.521Z,0.20
2022-08-29T03:22:47.401Z,0.20
2022-08-29T03:25:17.446Z,0.20
2022-08-29T03:27:45.387Z,0.20
2022-08-29T03:30:15.753Z,0.10
2022-08-29T03:32:44.161Z,0.20
2022-08-29T03:35:13.569Z,0.20
2022-08-29T03:37:42.782Z,0.20
2022-08-29T03:40:12.988Z,0.20
2022-08-29T03:42:42.825Z,0.20
2022-08-29T03:45:15.417Z,0.20
2022-08-29T03:47:43.557Z,0.20
2022-08-29T03:50:12.054Z,0.20
2022-08-29T03:52:44.549Z,0.20
2022-08-29T03:55:14.201Z,0.30
2022-08-29T03:57:43.155Z,0.20
2022-08-29T04:00:16.122Z,0.20
2022-08-29T04:02:47.948Z,0.20
2022-08-29T04:05:16.973Z,0.10
2022-08-29T04:07:50.273Z,0.20
2022-08-29T04:10:22.390Z,0.20
2022-08-29T04:12:54.530Z,0.20
2022-08-29T04:15:23.821Z,0.20
2022-08-29T04:17:54.479Z,0.20
2022-08-29T04:20:25.339Z,0.20
2022-08-29T04:22:56.351Z,0.20
2022-08-29T04:25:25.878Z,0.20
2022-08-29T04:27:54.687Z,0.20
2022-08-29T04:30:24.992Z,0.20
2022-08-29T04:32:52.809Z,0.20
2022-08-29T04:35:21.014Z,0.20
2022-08-29T04:37:49.290Z,0.20
2022-08-29T04:40:21.327Z,0.20
2022-08-29T04:42:51.036Z,0.20
2022-08-29T04:45:26.176Z,0.20
2022-08-29T04:47:54.649Z,0.20
2022-08-29T04:50:24.784Z,0.20
2022-08-29T04:52:53.348Z,0.20
2022-08-29T04:55:25.448Z,0.20
2022-08-29T04:57:57.028Z,0.20
2022-08-29T05:00:36.639Z,0.20
2022-08-29T05:03:08.287Z,0.20
2022-08-29T05:05:36.696Z,0.20
2022-08-29T05:08:05.167Z,0.20
2022-08-29T05:10:34.595Z,0.10
2022-08-29T05:13:02.541Z,0.20
2022-08-29T05:15:31.520Z,0.10
2022-08-29T05:17:59.395Z,0.20
2022-08-29T05:20:27.608Z,0.10
2022-08-29T05:22:55.464Z,0.20
2022-08-29T05:25:23.899Z,0.20
2022-08-29T05:28:16.288Z,0.20
2022-08-29T05:30:44.499Z,0.20
2022-08-29T05:33:12.477Z,0.20
2022-08-29T05:35:42.363Z,0.20
2022-08-29T05:38:11.763Z,0.20
2022-08-29T05:40:40.820Z,0.20
2022-08-29T05:43:11.684Z,0.20
2022-08-29T05:45:41.800Z,0.20
2022-08-29T05:48:11.919Z,0.20
2022-08-29T05:50:41.860Z,0.20
2022-08-29T05:53:10.689Z,0.20
2022-08-29T05:55:41.848Z,0.20
2022-08-29T05:58:12.079Z,0.20
2022-08-29T06:00:40.925Z,0.20
2022-08-29T06:03:09.153Z,0.20
2022-08-29T06:05:37.743Z,0.20
2022-08-29T06:08:07.369Z,0.20
2022-08-29T06:10:35.454Z,0.20
2022-08-29T06:13:03.379Z,0.20
2022-08-29T06:15:33.258Z,0.20
2022-08-29T06:18:02.232Z,0.10
2022-08-29T06:20:30.180Z,0.20
2022-08-29T06:23:03.780Z,0.20
2022-08-29T06:25:40.083Z,0.20
2022-08-29T06:28:08.656Z,0.20
2022-08-29T06:30:39.334Z,0.20
2022-08-29T06:33:07.380Z,0.20
2022-08-29T06:35:35.394Z,0.20
2022-08-29T06:38:03.285Z,0.20
2022-08-29T06:40:31.203Z,0.20
2022-08-29T06:42:59.745Z,0.10
2022-08-29T06:45:28.005Z,0.20
2022-08-29T06:47:57.356Z,0.10
2022-08-29T06:50:25.438Z,0.20
2022-08-29T06:52:55.607Z,0.20
2022-08-29T06:55:24.079Z,0.20
2022-08-29T06:57:52.308Z,0.20
2022-08-29T07:00:22.368Z,0.10
2022-08-29T07:02:53.127Z,0.20
2022-08-29T07:05:23.584Z,0.20
2022-08-29T07:07:53.423Z,0.20
2022-08-29T07:10:23.003Z,0.20
2022-08-29T07:12:51.985Z,0.20
2022-08-29T07:15:23.323Z,0.20
2022-08-29T07:17:59.235Z,0.20
2022-08-29T07:20:29.559Z,0.20
2022-08-29T07:22:58.134Z,0.20
2022-08-29T07:25:27.753Z,0.20
2022-08-29T07:27:56.917Z,0.20
2022-08-29T07:30:26.679Z,0.20
2022-08-29T07:33:00.405Z,0.20
2022-08-29T07:35:33.808Z,0.20
2022-08-29T07:38:02.643Z,0.20
2022-08-29T07:40:34.548Z,0.10
2022-08-29T07:43:02.667Z,0.20
2022-08-29T07:45:30.564Z,0.10
2022-08-29T07:48:02.778Z,0.10
2022-08-29T07:50:37.039Z,0.10
2022-08-29T07:53:05.421Z,0.13
2022-08-29T07:55:33.226Z,0.20
2022-08-29T07:58:03.990Z,0.10
2022-08-29T08:00:32.088Z,0.10
2022-08-29T08:03:01.068Z,0.10
2022-08-29T08:05:29.382Z,0.00
2022-08-29T08:08:02.156Z,0.10
2022-08-29T08:10:33.232Z,0.10
2022-08-29T08:13:03.514Z,0.10
2022-08-29T08:15:31.384Z,0.00
2022-08-29T08:18:00.295Z,0.00
2022-08-29T08:20:28.481Z,0.00
2022-08-29T08:22:58.628Z,0.10
2022-08-29T08:25:27.063Z,0.10
2022-08-29T08:27:55.154Z,0.10
2022-08-29T08:30:25.657Z,0.10
2022-08-29T08:32:55.545Z,0.10
2022-08-29T08:35:25.897Z,0.10
2022-08-29T08:37:53.865Z,0.20
2022-08-29T08:40:28.104Z,0.10
2022-08-29T08:43:00.473Z,0.10
2022-08-29T08:45:34.439Z,0.10
2022-08-29T08:48:06.169Z,0.20
2022-08-29T08:50:43.405Z,0.20
2022-08-29T08:53:17.112Z,0.20
2022-08-29T08:55:48.626Z,0.20
2022-08-29T08:58:33.078Z,0.20
2022-08-29T09:01:04.768Z,0.20
2022-08-29T09:04:04.455Z,0.20
2022-08-29T09:07:07.405Z,0.13
2022-08-29T09:09:45.979Z,0.10
2022-08-29T09:12:32.476Z,0.17
2022-08-29T09:15:08.124Z,0.10
2022-08-29T09:17:46.216Z,0.20
2022-08-29T09:20:17.742Z,0.10
2022-08-29T09:22:59.755Z,0.10
2022-08-29T09:25:30.226Z,0.20
2022-08-29T09:28:01.825Z,0.20
2022-08-29T09:30:33.468Z,0.20
2022-08-29T09:33:03.905Z,0.17
2022-08-29T09:35:39.646Z,0.17
2022-08-29T09:38:11.512Z,0.10
2022-08-29T09:40:51.449Z,0.20
2022-08-29T09:43:25.022Z,0.20
2022-08-29T09:46:16.291Z,0.20
2022-08-29T09:48:47.320Z,0.10
2022-08-29T09:51:24.461Z,0.20
2022-08-29T09:53:55.323Z,0.20
2022-08-29T09:56:26.496Z,0.20
2022-08-29T09:59:16.175Z,0.20
2022-08-29T10:01:44.455Z,0.10
2022-08-29T10:04:12.414Z,0.10
2022-08-29T10:06:46.079Z,0.20
2022-08-29T10:09:27.363Z,0.13
2022-08-29T10:12:00.599Z,0.20
2022-08-29T10:14:34.734Z,0.13
2022-08-29T10:17:21.956Z,0.10
2022-08-29T10:19:50.684Z,0.20
2022-08-29T10:22:30.012Z,0.10
2022-08-29T10:25:06.279Z,0.10
2022-08-29T10:27:43.720Z,0.13
2022-08-29T10:30:17.347Z,0.20
2022-08-29T10:33:09.436Z,0.10
2022-08-29T10:35:41.644Z,0.10
2022-08-29T10:38:29.844Z,0.10
2022-08-29T10:41:06.086Z,0.10
2022-08-29T10:43:40.081Z,0.10
2022-08-29T10:46:26.356Z,0.10
2022-08-29T10:49:03.064Z,0.10
2022-08-29T10:51:47.621Z,0.10
2022-08-29T10:54:42.472Z,0.10
2022-08-29T10:57:12.301Z,0.10
2022-08-29T10:59:57.314Z,0.10
2022-08-29T11:02:34.928Z,0.20
2022-08-29T11:05:08.541Z,0.10
2022-08-29T11:07:45.197Z,0.10
2022-08-29T11:10:18.036Z,0.10
2022-08-29T11:12:53.028Z,0.10
2022-08-29T11:15:27.988Z,0.10
2022-08-29T11:18:06.731Z,0.13
2022-08-29T11:20:39.480Z,0.10
2022-08-29T11:23:12.693Z,0.10
2022-08-29T11:25:41.949Z,0.10
2022-08-29T11:28:21.792Z,0.10
2022-08-29T11:30:58.414Z,0.10
2022-08-29T11:33:40.284Z,0.10
2022-08-29T11:36:25.437Z,0.10
2022-08-29T11:39:31.171Z,0.10
2022-08-29T11:42:05.138Z,0.10
2022-08-29T11:44:36.475Z,0.10
2022-08-29T11:47:40.378Z,0.10
2022-08-29T11:50:29.264Z,0.10
2022-08-29T11:53:00.944Z,0.10
2022-08-29T11:55:33.682Z,0.10
2022-08-29T11:58:08.820Z,0.07
2022-08-29T12:00:46.625Z,0.00
2022-08-29T12:03:56.675Z,0.10
2022-08-29T12:06:53.608Z,0.00
2022-08-29T12:09:45.368Z,0.10
2022-08-29T12:12:38.343Z,0.10
2022-08-29T12:15:46.048Z,0.00
2022-08-29T12:18:52.183Z,0.10
2022-08-29T12:21:44.653Z,0.10
2022-08-29T12:24:50.892Z,0.00
2022-08-29T12:28:03.201Z,0.00
2022-08-29T12:31:11.357Z,0.10
2022-08-29T12:33:55.081Z,0.00
2022-08-29T12:36:35.424Z,0.00
2022-08-29T12:39:19.701Z,0.00
2022-08-29T12:55:28.768Z,0.10
2022-08-29T12:58:03.159Z,0.10
2022-08-29T13:00:35.770Z,0.10
2022-08-29T13:03:15.362Z,0.00
2022-08-29T13:05:44.374Z,0.10
2022-08-29T13:08:28.387Z,0.10
2022-08-29T13:11:05.832Z,0.10
2022-08-29T13:13:34.128Z,0.10
2022-08-29T13:16:04.748Z,0.10
2022-08-29T13:18:44.596Z,0.10
2022-08-29T13:21:26.122Z,0.10
2022-08-29T13:24:06.250Z,0.10
2022-08-29T13:26:39.464Z,0.10
2022-08-29T13:29:27.680Z,0.10
2022-08-29T13:32:19.457Z,0.10
2022-08-29T13:35:06.352Z,0.10
2022-08-29T13:37:37.356Z,0.10
2022-08-29T13:40:47.135Z,0.17
2022-08-29T13:43:44.933Z,0.10
2022-08-29T13:46:19.639Z,0.10
2022-08-29T13:48:49.379Z,0.10
2022-08-29T13:51:18.784Z,0.20
2022-08-29T13:53:49.477Z,0.20
2022-08-29T13:56:30.108Z,0.20
2022-08-29T13:59:03.070Z,0.20
2022-08-29T14:05:46.180Z,0.10
2022-08-29T14:08:17.149Z,0.10
2022-08-29T14:10:45.762Z,0.10
2022-08-29T14:13:15.589Z,0.10
2022-08-29T14:15:45.786Z,0.20
2022-08-29T14:18:13.934Z,0.10
2022-08-29T14:20:43.042Z,0.10
2022-08-29T14:23:11.856Z,0.10
2022-08-29T14:25:50.441Z,0.20
2022-08-29T14:28:18.452Z,0.10
2022-08-29T14:30:52.111Z,0.10
2022-08-29T14:33:20.454Z,0.10
2022-08-29T14:35:48.567Z,0.20
2022-08-29T14:38:17.295Z,0.20
2022-08-29T14:40:45.527Z,0.20
2022-08-29T14:43:13.706Z,0.10
2022-08-29T14:45:41.866Z,0.10
2022-08-29T14:48:11.416Z,0.20
2022-08-29T14:50:39.760Z,0.10
2022-08-29T14:53:07.886Z,0.20
2022-08-29T14:55:38.713Z,0.20
2022-08-29T14:58:06.741Z,0.10
2022-08-29T15:00:35.112Z,0.10
2022-08-29T15:03:03.346Z,0.10
2022-08-29T15:05:34.035Z,0.17
2022-08-29T15:08:06.507Z,0.20
2022-08-29T15:10:34.942Z,0.20
2022-08-29T15:13:03.979Z,0.20
2022-08-29T15:19:09.435Z,0.10
2022-08-29T15:21:18.432Z,0.10
2022-08-29T15:23:50.053Z,0.10
2022-08-29T15:26:19.527Z,0.20
2022-08-29T15:28:48.112Z,0.10
2022-08-29T15:31:16.576Z,0.10
2022-08-29T15:33:46.851Z,0.10
2022-08-29T15:36:18.034Z,0.10
2022-08-29T15:38:47.992Z,0.20
2022-08-29T15:41:16.392Z,0.20
2022-08-29T15:43:44.531Z,0.20
2022-08-29T15:46:14.027Z,0.20
2022-08-29T15:48:42.667Z,0.10
2022-08-29T15:51:10.735Z,0.10
2022-08-29T15:53:44.708Z,0.10
2022-08-29T15:56:13.013Z,0.20
2022-08-29T15:58:42.852Z,0.20
2022-08-29T16:01:12.388Z,0.20
2022-08-29T16:03:42.989Z,0.10
2022-08-29T16:06:36.460Z,0.10
2022-08-29T16:09:11.014Z,0.10
2022-08-29T16:11:48.318Z,0.10
2022-08-29T16:14:57.540Z,0.13
2022-08-29T16:17:07.375Z,0.10
2022-08-29T16:19:37.451Z,0.10
2022-08-29T16:22:08.067Z,0.20
2022-08-29T16:24:38.507Z,0.20
2022-08-29T16:27:06.686Z,0.13
2022-08-29T16:29:35.485Z,0.10
2022-08-29T16:32:04.051Z,0.10
2022-08-29T16:34:32.122Z,0.10
2022-08-29T16:37:02.357Z,0.10
2022-08-29T16:39:30.716Z,0.10
2022-08-29T16:42:01.144Z,0.10
2022-08-29T16:44:31.194Z,0.20
2022-08-29T16:46:59.307Z,0.10
2022-08-29T16:49:27.218Z,0.20
2022-08-29T16:51:57.477Z,0.10
2022-08-29T16:54:25.768Z,0.20
2022-08-29T16:56:53.678Z,0.13
2022-08-29T16:59:23.083Z,0.10
2022-08-29T17:01:54.634Z,0.10
2022-08-29T17:04:27.744Z,0.17
2022-08-29T17:06:56.425Z,0.10
2022-08-29T17:09:24.657Z,0.20
2022-08-29T17:11:52.845Z,0.20
2022-08-29T17:14:23.392Z,0.10
2022-08-29T17:16:55.527Z,0.20
2022-08-29T17:19:24.513Z,0.20
2022-08-29T17:21:52.449Z,0.20
2022-08-29T17:24:20.978Z,0.10
2022-08-29T17:26:50.957Z,0.10
2022-08-29T17:29:19.288Z,0.20
2022-08-29T17:31:49.523Z,0.20
2022-08-29T17:34:22.746Z,0.10
2022-08-29T17:36:56.820Z,0.20
2022-08-29T17:39:31.134Z,0.20
2022-08-29T17:41:59.935Z,0.10
2022-08-29T17:44:30.689Z,0.20
2022-08-29T17:47:01.807Z,0.20
2022-08-29T17:49:36.772Z,0.10
2022-08-29T17:52:04.927Z,0.10
2022-08-29T17:54:32.774Z,0.17
2022-08-29T17:57:02.153Z,0.20
2022-08-29T17:59:33.885Z,0.20
2022-08-29T18:02:05.267Z,0.20
2022-08-29T18:04:33.441Z,0.20
2022-08-29T18:07:01.330Z,0.20
2022-08-29T18:09:30.360Z,0.20
2022-08-29T18:11:59.229Z,0.20
2022-08-29T18:14:28.143Z,0.20
2022-08-29T18:16:56.494Z,0.20
2022-08-29T18:19:28.507Z,0.20
2022-08-29T18:21:56.629Z,0.20
2022-08-29T18:24:24.616Z,0.20
2022-08-29T18:26:52.589Z,0.20
2022-08-29T18:29:20.819Z,0.20
2022-08-29T18:31:49.220Z,0.20
2022-08-29T18:34:17.436Z,0.20
2022-08-29T18:36:48.540Z,0.20
2022-08-29T18:39:19.045Z,0.20
2022-08-29T18:41:47.547Z,0.20
2022-08-29T18:44:15.539Z,0.20
2022-08-29T18:46:48.258Z,0.20
2022-08-29T18:49:16.875Z,0.20
2022-08-29T18:51:46.936Z,0.20
2022-08-29T18:54:18.950Z,0.20
2022-08-29T18:56:48.004Z,0.20
2022-08-29T18:59:16.094Z,0.20
2022-08-29T19:01:44.263Z,0.20
2022-08-29T19:04:12.349Z,0.20
2022-08-29T19:06:40.138Z,0.20
2022-08-29T19:09:09.434Z,0.20
2022-08-29T19:11:37.617Z,0.20
2022-08-29T19:14:05.889Z,0.20
2022-08-29T19:16:36.854Z,0.20
2022-08-29T19:19:06.130Z,0.20
2022-08-29T19:21:41.649Z,0.20
2022-08-29T19:24:11.012Z,0.20
2022-08-29T19:26:43.492Z,0.10
2022-08-29T19:29:14.093Z,0.20
2022-08-29T19:31:44.830Z,0.20
2022-08-29T19:34:13.215Z,0.20
2022-08-29T19:36:42.986Z,0.20
2022-08-29T19:39:17.414Z,0.20
2022-08-29T19:41:45.386Z,0.20
2022-08-29T19:44:13.387Z,0.20
2022-08-29T19:46:46.067Z,0.20
2022-08-29T19:49:17.185Z,0.20
2022-08-29T19:51:45.167Z,0.20
2022-08-29T19:54:13.431Z,0.20
2022-08-29T19:56:46.827Z,0.20
2022-08-29T19:59:15.954Z,0.20
2022-08-29T20:01:44.980Z,0.20
2022-08-29T20:04:14.655Z,0.20
2022-08-29T20:06:42.528Z,0.20
2022-08-29T20:09:12.302Z,0.20
2022-08-29T20:11:43.443Z,0.20
2022-08-29T20:14:14.231Z,0.20
2022-08-29T20:16:42.871Z,0.20
2022-08-29T20:19:12.268Z,0.20
2022-08-29T20:21:40.909Z,0.20
2022-08-29T20:24:10.364Z,0.20
2022-08-29T20:26:44.426Z,0.20
2022-08-29T20:29:16.552Z,0.20
2022-08-29T20:31:48.176Z,0.20
2022-08-29T20:34:17.162Z,0.20
2022-08-29T20:37:05.162Z,0.20
2022-08-29T20:39:34.440Z,0.20
2022-08-29T20:42:07.724Z,0.20
2022-08-29T20:44:39.147Z,0.17
2022-08-29T20:47:08.417Z,0.20
2022-08-29T20:49:43.937Z,0.20
2022-08-29T20:52:15.303Z,0.20
2022-08-29T20:54:46.069Z,0.20
2022-08-29T20:57:15.738Z,0.20
2022-08-29T20:59:45.164Z,0.20
2022-08-29T21:02:14.001Z,0.20
2022-08-29T21:05:05.609Z,0.10
2022-08-29T21:07:33.738Z,0.20
2022-08-29T21:10:02.065Z,0.20
2022-08-29T21:12:30.369Z,0.20
2022-08-29T21:14:59.793Z,0.20
2022-08-29T21:17:28.898Z,0.23
2022-08-29T21:19:56.937Z,0.20
2022-08-29T21:22:26.889Z,0.20
2022-08-29T21:24:56.384Z,0.20
2022-08-29T21:27:26.977Z,0.20
2022-08-29T21:29:56.501Z,0.20
2022-08-29T21:32:26.079Z,0.20
2022-08-29T21:34:53.993Z,0.20
2022-08-29T21:37:22.134Z,0.20
2022-08-29T21:39:50.013Z,0.20
2022-08-29T21:42:18.429Z,0.20
2022-08-29T21:44:46.367Z,0.20
2022-08-29T21:47:17.720Z,0.20
2022-08-29T21:49:51.736Z,0.20
2022-08-29T21:52:19.989Z,0.20
2022-08-29T21:54:50.162Z,0.20
2022-08-29T21:57:42.163Z,0.20
2022-08-29T22:00:11.894Z,0.20
2022-08-29T22:02:40.260Z,0.20
2022-08-29T22:05:09.844Z,0.20
2022-08-29T22:07:40.717Z,0.20
2022-08-29T22:10:12.943Z,0.20
2022-08-29T22:12:41.229Z,0.20
2022-08-29T22:15:27.757Z,0.20
2022-08-29T22:17:55.749Z,0.20
2022-08-29T22:20:28.379Z,0.20
2022-08-29T22:22:57.404Z,0.20
2022-08-29T22:25:25.675Z,0.20
2022-08-29T22:27:53.966Z,0.20
2022-08-29T22:30:22.132Z,0.20
2022-08-29T22:33:00.340Z,0.20
2022-08-29T22:35:31.302Z,0.20
2022-08-29T22:37:59.608Z,0.20
2022-08-29T22:40:27.863Z,0.20
2022-08-29T22:42:57.626Z,0.20
2022-08-29T22:45:26.630Z,0.20
2022-08-29T22:47:54.836Z,0.13
2022-08-29T22:50:28.383Z,0.20
2022-08-29T22:52:59.764Z,0.20
2022-08-29T22:57:57.890Z,0.20
2022-08-29T23:00:30.606Z,0.20
2022-08-29T23:02:58.596Z,0.20
2022-08-29T23:05:27.678Z,0.20
2022-08-29T23:07:57.155Z,0.20
2022-08-29T23:10:25.090Z,0.20
2022-08-29T23:12:53.015Z,0.20
2022-08-29T23:15:21.047Z,0.20
2022-08-29T23:17:49.036Z,0.20
2022-08-29T23:20:19.413Z,0.20
2022-08-29T23:22:48.649Z,0.20
2022-08-29T23:25:18.391Z,0.20
2022-08-29T23:27:46.277Z,0.10
2022-08-29T23:30:15.669Z,0.20
2022-08-29T23:32:43.878Z,0.20
2022-08-29T23:35:12.284Z,0.10
2022-08-29T23:37:40.413Z,0.20
2022-08-29T23:40:09.616Z,0.20
2022-08-29T23:42:38.946Z,0.20
2022-08-29T23:45:08.184Z,0.20
2022-08-29T23:47:36.141Z,0.20
2022-08-29T23:50:04.750Z,0.20
2022-08-29T23:52:32.775Z,0.20
2022-08-29T23:55:01.548Z,0.20
2022-08-29T23:57:29.484Z,0.20
